Latest Weather Observations for Strahan

IDT60801

Issued at 12:35 pm EST Wednesday 30 July 2014 (issued every 30 minutes, with the page automatically refreshed every 10 minutes)

About weather observations | Map of weather stations | Latest weather observations for TAS | Other Formats
Station Details ID: 097072 Name: STRAHAN AERODROME Lat: -42.16 Lon: 145.29 Height: 21.0 m
Data from the previous 72 hours. | See also: Recent months at Strahan
Date/Time
EST
Temp
°C
App
Temp
°C
Dew
Point
Rel
Hum
%
Delta-T
°C
Wind Press
QNH
hPa
Press
MSL
hPa
Rain
since 9 am
mm
Dir
 
Spd
km/h
Gust
km/h
Spd
kts
Gust
kts
30/12:30pm 11.9 0.7 8.4 79 1.7 NW 57 80 31 43 997.8 - 2.6
30/12:12pm 11.7 0.7 8.6 81 1.5 NW 56 74 30 40 997.9 - 2.6
30/12:00pm 11.4 0.8 8.3 81 1.5 NW 54 80 29 43 998.1 998.1 2.6
30/11:30am 10.8 0.4 9.4 91 0.7 NW 54 74 29 40 998.3 - 2.4
30/11:00am 10.7 1.8 9.1 90 0.8 NW 46 65 25 35 999.0 999.0 1.8
30/10:54am 11.0 2.4 8.9 87 1.0 NW 44 63 24 34 999.0 - 1.6
30/10:49am 11.0 2.2 8.2 83 1.4 NW 44 61 24 33 999.1 - 1.4
30/10:30am 10.8 2.2 8.7 87 1.0 NW 44 69 24 37 999.4 - 1.4
30/10:02am 10.9 2.3 9.0 88 0.9 NW 44 63 24 34 999.4 - 0.8
30/10:00am 10.8 1.9 9.1 89 0.9 NW 46 63 25 34 999.5 999.6 0.8
30/09:49am 10.4 1.4 9.0 91 0.7 NW 46 65 25 35 999.5 - 0.6
30/09:38am 11.2 0.9 8.1 81 1.5 NW 52 67 28 36 999.4 - 0.0
30/09:30am 11.4 2.2 8.1 80 1.6 NW 46 67 25 36 999.5 - 0.0
30/09:05am 10.8 1.9 7.7 81 1.5 NW 44 63 24 34 999.5 - 0.0
30/09:04am 10.8 1.5 7.5 80 1.6 NW 46 63 25 34 999.5 - 0.0
30/09:01am 10.7 1.7 7.4 80 1.6 NW 44 63 24 34 999.4 - 0.0
30/09:00am 10.8 1.5 7.5 80 1.6 NW 46 63 25 34 999.4 999.5 7.2
30/08:31am 9.5 -0.2 7.6 88 0.9 WNW 48 69 26 37 999.8 - 7.2
30/08:30am 9.8 0.2 7.9 88 0.9 WNW 48 65 26 35 999.9 - 7.2
30/08:15am 10.5 1.1 7.2 80 1.6 WNW 46 67 25 36 999.7 - 6.6
30/08:05am 10.8 0.0 6.0 72 2.2 WNW 52 76 28 41 999.6 - 6.6
30/08:00am 10.6 -0.5 6.2 74 2.1 WNW 54 76 29 41 999.5 999.6 6.6
30/07:49am 10.1 -1.2 7.3 83 1.3 NW 56 74 30 40 999.2 - 6.6
30/07:46am 10.0 -1.4 7.6 85 1.1 NW 57 74 31 40 999.2 - 6.6
30/07:30am 10.5 2.5 7.4 81 1.5 NW 39 57 21 31 999.2 - 6.4
30/07:00am 10.1 1.1 7.2 82 1.4 NW 44 65 24 35 999.3 999.3 6.4
30/06:58am 10.5 1.4 6.8 78 1.7 NW 44 65 24 35 999.3 - 6.2
30/06:37am 10.5 0.2 4.9 68 2.5 NW 48 67 26 36 999.0 - 6.2
30/06:30am 10.4 -0.6 5.2 70 2.4 NW 52 67 28 36 998.9 - 6.2
30/06:06am 10.0 1.0 6.5 79 1.6 NW 43 65 23 35 999.0 - 6.2
30/06:03am 10.6 1.5 6.0 73 2.1 NW 43 65 23 35 998.9 - 6.2
30/06:00am 10.6 1.4 5.6 71 2.3 NW 43 59 23 32 998.9 998.9 6.2
30/05:43am 10.1 1.2 5.1 71 2.3 NW 41 65 22 35 999.0 - 6.2
30/05:30am 9.5 1.9 6.0 79 1.6 WNW 35 56 19 30 999.0 - 6.2
30/05:04am 10.5 3.1 4.2 65 2.8 WNW 32 50 17 27 999.4 - 5.8
30/05:00am 10.5 3.2 4.6 67 2.7 WNW 32 44 17 24 999.5 999.6 5.8
30/04:57am 10.5 3.7 5.1 69 2.5 WNW 30 44 16 24 999.6 - 5.8
30/04:30am 10.0 1.6 3.7 65 2.8 W 37 56 20 30 999.9 - 5.8
30/04:00am 10.1 0.8 2.7 60 3.2 W 41 57 22 31 999.9 1000.0 5.8
30/03:54am 9.9 0.2 3.0 62 3.0 W 43 61 23 33 999.9 - 5.8
30/03:30am 10.0 0.1 2.6 60 3.2 W 44 59 24 32 1000.0 - 5.8
30/03:07am 10.1 -1.0 2.7 60 3.2 W 50 70 27 38 1000.1 - 5.8
30/03:04am 10.1 -1.4 2.5 59 3.2 W 52 70 28 38 1000.1 - 5.8
30/03:00am 10.1 -0.8 3.6 64 2.9 W 50 67 27 36 1000.1 1000.2 5.8
30/02:54am 10.2 0.6 4.4 67 2.6 W 44 63 24 34 1000.1 - 5.8
30/02:30am 10.4 -1.2 3.9 64 2.9 W 54 72 29 39 999.8 - 5.8
30/02:00am 10.6 -0.7 3.6 62 3.1 W 52 76 28 41 999.4 999.5 5.8
30/01:30am 10.6 -1.6 3.6 62 3.1 W 57 78 31 42 998.7 - 5.8
30/01:00am 10.5 -1.6 3.3 61 3.2 WNW 56 78 30 42 998.2 998.2 5.8
30/12:30am 10.4 -1.4 4.8 68 2.5 WNW 56 78 30 42 997.5 - 5.8
30/12:28am 10.2 -1.3 4.6 68 2.5 WNW 54 72 29 39 997.5 - 5.8
30/12:00am 9.8 -1.3 6.3 79 1.6 WNW 54 80 29 43 997.2 997.2 5.8
 
Date/Time
EST
Temp
°C
App
Temp
°C
Dew
Point
Rel
Hum
%
Delta-T
°C
Wind Press
QNH
hPa
Press
MSL
hPa
Rain
since 9 am
mm
Dir
 
Spd
km/h
Gust
km/h
Spd
kts
Gust
kts
29/11:54pm 9.9 -0.9 6.2 78 1.7 WNW 52 78 28 42 997.0 - 5.6
29/11:31pm 9.8 -1.8 6.0 77 1.8 WNW 56 74 30 40 996.3 - 5.6
29/11:30pm 9.8 -1.7 6.2 78 1.7 WNW 56 70 30 38 996.2 - 5.6
29/11:02pm 9.8 -2.4 5.4 74 2.0 W 59 83 32 45 996.0 - 5.0
29/11:00pm 10.3 -2.0 5.1 70 2.4 W 59 83 32 45 995.9 995.9 5.0
29/10:30pm 11.1 0.4 4.8 65 2.9 WNW 50 80 27 43 995.7 - 5.0
29/10:00pm 10.8 -0.9 5.1 68 2.6 WNW 56 91 30 49 995.7 995.7 5.0
29/09:30pm 10.1 -1.6 5.1 71 2.3 WNW 56 80 30 43 995.1 - 5.0
29/09:00pm 10.1 -1.6 5.3 72 2.2 WNW 56 76 30 41 995.0 995.0 5.0
29/08:39pm 9.5 -2.0 4.3 70 2.3 WNW 54 74 29 40 994.5 - 5.0
29/08:30pm 9.1 -1.7 5.8 80 1.5 WNW 52 80 28 43 994.1 - 5.0
29/08:20pm 7.9 -4.2 6.2 89 0.8 WNW 59 78 32 42 994.0 - 4.8
29/08:19pm 7.8 -4.7 6.1 89 0.8 WNW 61 78 33 42 994.0 - 4.8
29/08:15pm 9.7 -6.9 6.2 79 1.6 WNW 83 115 45 62 993.6 - 4.0
29/08:14pm 11.1 0.6 5.4 68 2.6 WNW 50 87 27 47 993.5 - 4.0
29/08:11pm 11.5 1.5 6.0 69 2.6 WNW 48 69 26 37 993.4 - 4.0
29/08:01pm 11.5 -0.5 4.5 62 3.2 WNW 57 76 31 41 993.6 - 4.0
29/08:00pm 11.6 -0.8 4.6 62 3.2 WNW 59 85 32 46 993.6 993.6 4.0
29/07:49pm 11.6 0.3 5.5 66 2.8 WNW 54 74 29 40 993.4 - 4.0
29/07:30pm 11.6 -0.1 5.5 66 2.8 WNW 56 80 30 43 993.5 - 4.0
29/07:00pm 11.5 -0.9 4.7 63 3.1 WNW 59 83 32 45 992.8 992.8 4.0
29/06:30pm 11.6 -1.1 5.0 64 3.0 WNW 61 87 33 47 992.1 - 4.0
29/06:01pm 10.6 -1.2 4.9 68 2.6 WNW 56 76 30 41 991.3 - 4.0
29/06:00pm 10.5 -1.2 5.3 70 2.4 WNW 56 72 30 39 991.4 991.4 4.0
29/05:53pm 10.1 -1.6 5.1 71 2.3 WNW 56 74 30 40 991.1 - 4.0
29/05:39pm 9.0 -1.0 6.1 82 1.3 WNW 48 72 26 39 990.7 - 4.0
29/05:30pm 9.0 -4.7 7.3 89 0.8 WNW 69 91 37 49 991.6 - 3.4
29/05:26pm 11.4 -2.2 7.7 78 1.8 WNW 69 91 37 49 991.2 - 2.8
29/05:12pm 11.9 -2.0 7.2 73 2.3 WNW 70 96 38 52 990.0 - 2.8
29/05:00pm 11.7 -2.2 6.4 70 2.5 WNW 69 95 37 51 989.7 989.7 2.8
29/04:47pm 12.3 -1.3 8.0 75 2.1 WNW 69 93 37 50 989.7 - 2.8
29/04:39pm 12.1 -1.4 8.4 78 1.8 WNW 69 93 37 50 989.7 - 2.8
29/04:30pm 11.7 -0.6 8.6 81 1.5 NW 63 95 34 51 989.8 - 2.8
29/04:00pm 11.8 -0.7 9.4 85 1.2 NW 65 95 35 51 989.3 989.3 2.8
29/03:59pm 12.0 -0.5 9.4 84 1.3 NW 65 95 35 51 989.2 - 2.6
29/03:53pm 12.5 -0.5 8.8 78 1.9 NW 67 91 36 49 989.3 - 2.6
29/03:30pm 12.3 0.6 9.3 82 1.5 NW 61 82 33 44 989.0 - 2.6
29/03:00pm 11.6 -0.6 10.2 91 0.7 NW 65 98 35 53 989.2 989.2 2.6
29/02:52pm 11.2 -1.2 9.6 90 0.8 NNW 65 98 35 53 988.7 - 2.6
29/02:30pm 11.2 0.3 9.6 90 0.8 NW 57 78 31 42 989.2 - 1.8
29/02:21pm 11.6 0.7 9.0 84 1.3 NW 56 78 30 42 989.3 - 1.6
29/02:20pm 11.7 0.9 9.1 84 1.3 NW 56 70 30 38 989.4 - 1.6
29/02:00pm 12.0 0.9 8.1 77 1.9 NW 56 82 30 44 989.8 989.8 1.6
29/01:30pm 11.9 0.8 7.8 76 2.0 NW 56 80 30 43 990.6 - 1.6
29/01:00pm 11.5 0.2 8.0 79 1.7 NW 57 82 31 44 991.3 991.3 1.6
29/12:30pm 11.4 1.2 7.1 75 2.1 NW 50 72 27 39 992.0 - 1.6
29/12:00pm 11.5 1.0 5.6 67 2.8 NW 50 83 27 45 992.5 992.5 1.6
29/11:30am 11.3 1.2 7.4 77 1.9 NW 50 69 27 37 992.6 - 1.6
29/11:02am 10.4 -0.2 6.7 78 1.7 NW 52 76 28 41 992.9 - 1.6
29/11:00am 10.5 -0.2 6.3 75 2.0 NW 52 76 28 41 992.9 992.9 1.6
29/10:30am 9.3 -1.7 6.9 85 1.1 WNW 54 83 29 45 993.8 - 0.8
29/10:11am 9.7 -2.8 5.9 77 1.7 WNW 61 93 33 50 993.4 - 0.2
29/10:00am 10.8 -1.9 4.9 67 2.7 WNW 61 85 33 46 993.1 993.1 0.0
29/09:51am 11.5 0.1 6.6 72 2.3 NW 56 85 30 46 993.0 - 0.0
29/09:44am 11.4 1.7 7.5 77 1.9 NW 48 67 26 36 993.2 - 0.0
29/09:43am 11.5 1.9 7.8 78 1.8 NW 48 65 26 35 993.2 - 0.0
29/09:30am 10.9 1.8 8.3 84 1.3 NW 46 65 25 35 992.9 - 0.0
29/09:25am 10.7 1.6 8.5 86 1.1 NW 46 65 25 35 992.9 - 0.0
29/09:23am 10.7 1.6 8.3 85 1.2 NW 46 61 25 33 992.9 - 0.0
29/09:03am 11.7 1.5 7.0 73 2.2 NW 50 70 27 38 993.1 - 0.0
29/09:00am 11.6 2.1 6.9 73 2.3 NW 46 63 25 34 993.3 993.3 23.2
29/08:30am 11.0 1.3 7.3 78 1.8 NW 48 72 26 39 993.4 - 23.2
29/08:21am 10.8 0.0 6.0 72 2.2 WNW 52 72 28 39 993.2 - 23.2
29/08:00am 10.9 2.5 9.5 91 0.7 NW 44 65 24 35 993.5 993.5 23.0
29/07:59am 10.9 2.1 9.5 91 0.7 NW 46 65 25 35 993.4 - 23.0
29/07:31am 11.3 2.5 9.4 88 1.0 NW 46 67 25 36 993.2 - 22.6
29/07:30am 11.4 2.1 9.3 87 1.1 NW 48 67 26 36 993.1 - 22.2
29/07:19am 11.3 2.3 9.0 86 1.1 NNW 46 70 25 38 993.0 - 22.2
29/07:13am 11.5 2.3 9.6 88 1.0 NW 48 63 26 34 993.1 - 22.2
29/07:00am 11.3 1.5 10.0 92 0.7 NW 52 74 28 40 992.9 992.9 22.2
29/06:30am 11.1 1.8 10.6 97 0.3 NNW 50 80 27 43 992.4 - 21.4
29/06:00am 11.6 0.7 9.5 87 1.1 NNW 57 76 31 41 992.6 992.6 18.0
29/05:30am 11.4 0.4 10.6 95 0.4 NNW 59 85 32 46 992.3 - 18.0
29/05:15am 11.3 2.0 10.4 94 0.5 NNW 50 69 27 37 992.6 - 16.8
29/05:14am 11.2 2.6 10.4 95 0.4 NNW 46 59 25 32 992.7 - 16.8
29/05:12am 11.1 4.3 10.5 96 0.3 WNW 37 56 20 30 992.9 - 16.8
29/05:10am 11.0 4.9 10.4 96 0.3 WNW 33 43 18 23 992.6 - 16.8
29/05:04am 10.9 3.2 10.3 96 0.3 NNW 41 63 22 34 992.8 - 15.6
29/05:00am 11.0 3.8 10.4 96 0.3 NNW 39 54 21 29 993.0 993.0 14.6
29/04:38am 11.3 3.2 10.0 92 0.7 NNW 43 57 23 31 993.9 - 13.8
29/04:30am 11.2 3.0 9.8 91 0.7 NNW 43 61 23 33 994.0 - 13.8
29/04:26am 11.2 2.5 9.8 91 0.7 NNW 46 65 25 35 994.2 - 13.8
29/04:06am 11.3 3.1 9.7 90 0.8 NNW 43 65 23 35 994.6 - 13.8
29/04:00am 11.2 3.8 9.8 91 0.7 NNW 39 54 21 29 994.8 994.8 13.8
29/03:58am 11.3 3.5 9.7 90 0.8 NNW 41 57 22 31 994.9 - 13.8
29/03:36am 11.1 4.6 10.3 95 0.4 NNW 35 54 19 29 995.3 - 13.8
29/03:30am 11.0 4.1 10.4 96 0.3 NNW 37 52 20 28 995.4 - 13.8
29/03:17am 10.9 3.5 9.8 93 0.6 NNW 39 57 21 31 996.0 - 13.8
29/03:00am 10.6 2.3 9.5 93 0.6 NNW 43 57 23 31 996.3 996.3 13.2
29/02:38am 10.2 2.7 9.3 94 0.4 NNW 39 61 21 33 996.9 - 12.4
29/02:30am 10.9 3.5 9.8 93 0.6 N 39 56 21 30 997.1 - 10.2
29/02:22am 11.0 4.0 9.8 92 0.6 NNW 37 56 20 30 997.4 - 9.8
29/02:03am 11.1 3.6 9.5 90 0.8 NNW 39 56 21 30 997.7 - 9.4
29/02:02am 11.2 3.7 9.5 89 0.9 NNW 39 56 21 30 997.8 - 9.4
29/02:00am 11.2 3.7 9.5 89 0.9 NNW 39 56 21 30 997.8 997.8 9.4
29/01:30am 10.9 3.4 9.3 90 0.8 NNW 39 59 21 32 998.3 - 8.8
29/01:02am 10.8 4.4 9.4 91 0.7 N 33 52 18 28 998.8 - 8.0
29/01:00am 10.8 4.6 9.4 91 0.7 NNW 32 44 17 24 998.8 998.8 8.0
29/12:57am 11.0 4.6 9.4 90 0.8 NNW 33 44 18 24 999.1 - 7.8
29/12:35am 10.6 3.3 8.9 89 0.8 NNW 37 54 20 29 999.5 - 7.8
29/12:30am 10.5 2.5 8.9 90 0.8 NNW 41 59 22 32 999.6 - 7.8
29/12:23am 10.7 2.3 9.1 90 0.8 NNW 43 61 23 33 999.7 - 7.8
29/12:15am 11.3 3.4 9.2 87 1.1 NNW 41 57 22 31 999.6 - 7.8
29/12:00am 11.6 3.5 8.8 83 1.4 NNW 41 54 22 29 999.8 999.9 7.6
 
Date/Time
EST
Temp
°C
App
Temp
°C
Dew
Point
Rel
Hum
%
Delta-T
°C
Wind Press
QNH
hPa
Press
MSL
hPa
Rain
since 9 am
mm
Dir
 
Spd
km/h
Gust
km/h
Spd
kts
Gust
kts
28/11:30pm 11.5 3.4 8.5 82 1.5 NNW 41 54 22 29 1000.5 - 7.6
28/11:00pm 11.5 3.5 8.9 84 1.3 NNW 41 59 22 32 1001.0 1001.1 7.6
28/10:58pm 11.7 3.7 8.9 83 1.4 NNW 41 59 22 32 1001.0 - 7.6
28/10:57pm 11.6 3.6 9.0 84 1.3 NNW 41 57 22 31 1001.0 - 7.6
28/10:38pm 11.0 4.9 9.8 92 0.6 NNW 32 52 17 28 1001.0 - 7.6
28/10:30pm 10.9 3.8 9.7 92 0.6 NNW 37 52 20 28 1001.0 - 7.6
28/10:25pm 10.8 4.5 9.6 92 0.6 NNW 33 52 18 28 1001.1 - 7.6
28/10:23pm 10.6 4.8 9.5 93 0.6 NNW 30 44 16 24 1001.2 - 7.6
28/10:17pm 10.2 5.4 9.0 92 0.6 N 24 35 13 19 1001.2 - 7.4
28/10:00pm 10.3 5.1 8.9 91 0.7 N 26 35 14 19 1001.4 1001.5 7.4
28/09:41pm 10.9 6.1 8.7 86 1.1 N 24 37 13 20 1002.0 - 7.4
28/09:33pm 11.2 4.9 8.8 85 1.2 NNW 32 50 17 27 1002.3 - 7.4
28/09:30pm 11.2 4.2 8.6 84 1.3 NNW 35 50 19 27 1002.3 - 7.4
28/09:00pm 10.9 4.5 8.7 86 1.1 NNW 32 44 17 24 1002.7 1002.8 7.4
28/08:33pm 11.0 4.0 8.4 84 1.3 NNW 35 54 19 29 1002.9 - 7.4
28/08:30pm 10.9 4.2 8.3 84 1.3 NNW 33 50 18 27 1002.8 - 7.4
28/08:29pm 10.7 4.3 8.5 86 1.1 NNW 32 50 17 27 1002.8 - 7.4
28/08:16pm 10.5 4.8 8.4 87 1.0 NNW 28 43 15 23 1002.9 - 7.4
28/08:00pm 10.1 5.3 8.7 91 0.7 NNW 24 32 13 17 1003.1 1003.2 7.4
28/07:52pm 10.1 4.4 8.5 90 0.8 N 28 44 15 24 1003.2 - 7.4
28/07:50pm 10.1 4.4 8.4 89 0.8 NNW 28 46 15 25 1003.2 - 7.4
28/07:49pm 10.2 4.2 8.5 89 0.8 NNW 30 46 16 25 1003.1 - 7.4
28/07:38pm 10.3 4.5 8.1 86 1.1 NNW 28 52 15 28 1003.2 - 7.4
28/07:30pm 10.1 5.3 8.7 91 0.7 NNW 24 35 13 19 1003.3 - 7.4
28/07:20pm 10.2 4.6 8.6 90 0.8 NNW 28 41 15 22 1003.4 - 7.4
28/07:00pm 10.3 3.2 7.9 85 1.2 NNW 35 46 19 25 1003.3 1003.4 7.2
28/06:30pm 10.0 2.2 8.3 89 0.8 NNW 39 52 21 28 1003.0 - 7.2
28/06:12pm 9.6 1.9 8.5 93 0.5 NNW 39 57 21 31 1002.9 - 7.2
28/06:00pm 9.2 2.4 7.5 89 0.8 NW 33 56 18 30 1002.7 1002.8 7.2
28/05:51pm 9.3 2.5 7.7 90 0.8 NW 33 56 18 30 1003.2 - 5.6
28/05:46pm 10.5 4.0 8.8 89 0.8 NNW 33 50 18 27 1002.7 - 2.6
28/05:30pm 11.1 2.9 8.1 82 1.5 NNW 41 61 22 33 1002.5 - 2.2
28/05:03pm 10.7 3.7 8.5 86 1.1 NNW 35 54 19 29 1002.5 - 2.2
28/05:02pm 10.7 3.8 8.8 88 0.9 NNW 35 54 19 29 1002.6 - 2.2
28/05:00pm 10.6 3.7 8.7 88 0.9 NNW 35 50 19 27 1002.6 1002.7 2.2
28/04:31pm 10.1 3.6 8.2 88 0.9 NNW 32 46 17 25 1002.7 - 1.0
28/04:30pm 10.1 3.7 8.4 89 0.8 NNW 32 46 17 25 1002.7 - 1.0
28/04:04pm 10.5 4.6 7.7 83 1.3 N 28 50 15 27 1002.9 - 0.8
28/04:00pm 10.4 5.2 7.3 81 1.5 N 24 50 13 27 1002.7 1002.8 0.8
28/03:30pm 11.4 7.1 7.7 78 1.8 N 20 30 11 16 1003.6 - 0.4
28/03:00pm 11.2 4.5 7.5 78 1.8 N 32 44 17 24 1004.1 1004.2 0.4
28/02:47pm 11.6 5.0 7.7 77 1.9 NNW 32 54 17 29 1004.2 - 0.4
28/02:30pm 11.6 3.9 6.9 73 2.2 NNW 37 52 20 28 1004.3 - 0.4
28/02:00pm 12.1 4.4 7.2 72 2.4 NNW 37 50 20 27 1004.6 1004.7 0.4
28/01:33pm 12.5 5.2 7.2 70 2.6 NNW 35 54 19 29 1005.0 - 0.4
28/01:30pm 12.9 5.8 8.2 73 2.3 NNW 35 46 19 25 1005.0 - 0.4
28/01:12pm 11.9 4.6 7.0 72 2.3 NNW 35 54 19 29 1005.4 - 0.4
28/01:00pm 12.5 4.4 6.8 68 2.7 NNW 39 52 21 28 1005.6 1005.7 0.4
28/12:30pm 12.2 6.5 8.3 77 1.9 NNW 28 37 15 20 1006.2 - 0.4
28/12:00pm 11.5 5.0 8.2 80 1.6 NNW 32 41 17 22 1006.6 1006.7 0.4
28/11:30am 11.0 5.6 8.2 83 1.4 NW 26 35 14 19 1007.1 - 0.4
28/11:25am 10.8 5.1 8.2 84 1.3 NW 28 33 15 18 1007.1 - 0.4
28/11:05am 10.9 5.5 7.8 81 1.5 NW 26 35 14 19 1007.4 - 0.4
28/11:00am 11.3 5.8 7.6 78 1.8 WNW 26 35 14 19 1007.4 1007.5 0.0
28/10:30am 12.3 5.6 7.4 72 2.4 NW 32 44 17 24 1007.6 - 0.0
28/10:00am 11.4 5.3 8.3 81 1.5 NW 30 43 16 23 1007.5 1007.6 0.0
28/09:30am 10.4 5.2 8.7 89 0.8 NNW 26 33 14 18 1007.3 - 0.0
28/09:11am 9.3 3.4 7.6 89 0.8 NNW 28 46 15 25 1007.3 - 0.0
28/09:07am 9.4 3.1 7.5 88 0.9 NNW 30 46 16 25 1007.3 - 0.0
28/09:00am 10.3 4.3 8.6 89 0.8 NNW 30 41 16 22 1007.3 1007.4 3.4
28/08:48am 10.7 6.1 9.6 93 0.6 NNW 24 35 13 19 1007.0 - 3.4
28/08:30am 10.6 4.3 8.9 89 0.8 NNW 32 41 17 22 1006.9 - 3.4
28/08:27am 10.6 4.1 9.0 90 0.8 NNW 33 48 18 26 1006.9 - 3.4
28/08:00am 10.9 5.7 10.3 96 0.3 NNW 28 43 15 23 1007.0 1007.1 3.4
28/07:34am 11.1 5.7 9.5 90 0.8 NNW 28 37 15 20 1007.1 - 2.8
28/07:30am 11.1 5.7 9.4 89 0.9 NNW 28 37 15 20 1007.1 - 2.6
28/07:18am 10.9 5.9 9.5 91 0.7 NNW 26 33 14 18 1007.2 - 2.6
28/07:00am 11.2 5.4 9.3 88 1.0 NNW 30 44 16 24 1007.4 1007.5 2.6
28/06:58am 11.3 5.8 9.2 87 1.1 NNW 28 44 15 24 1007.4 - 2.6
28/06:30am 11.4 5.8 8.8 84 1.3 NNW 28 39 15 21 1007.7 - 2.6
28/06:00am 11.3 5.6 8.3 82 1.5 NNW 28 35 15 19 1007.7 1007.8 2.6
28/05:30am 11.2 5.0 7.9 80 1.6 NW 30 37 16 20 1007.9 - 2.6
28/05:04am 11.1 5.5 8.8 86 1.1 NW 28 46 15 25 1007.8 - 2.6
28/05:00am 11.2 4.9 8.8 85 1.2 NW 32 46 17 25 1007.8 1007.9 2.6
28/04:33am 11.4 5.8 10.3 93 0.6 NW 30 41 16 22 1007.7 - 2.6
28/04:30am 11.4 5.8 10.3 93 0.6 NW 30 41 16 22 1007.6 - 2.6
28/04:19am 11.4 7.1 10.6 95 0.4 NNW 24 35 13 19 1007.6 - 2.6
28/04:00am 10.7 5.3 9.6 93 0.6 NNW 28 39 15 21 1007.6 1007.7 2.6
28/03:52am 10.5 4.4 9.6 94 0.5 NNW 32 43 17 23 1007.7 - 2.6
28/03:41am 10.9 4.8 10.4 97 0.3 NNW 33 54 18 29 1007.8 - 2.6
28/03:30am 11.2 4.8 10.7 97 0.3 NNW 35 56 19 30 1007.8 - 2.6
28/03:09am 11.2 5.3 10.3 94 0.5 NNW 32 50 17 27 1007.9 - 1.2
28/03:02am 11.3 5.2 9.9 91 0.7 N 32 50 17 27 1008.1 - 0.8
28/03:00am 11.1 5.0 9.7 91 0.7 N 32 43 17 23 1008.1 1008.2 0.8
28/02:57am 11.2 5.1 9.8 91 0.7 N 32 43 17 23 1008.2 - 0.8
28/02:30am 11.1 5.5 10.3 95 0.4 N 30 44 16 24 1008.4 - 0.8
28/02:00am 11.9 5.1 9.3 84 1.3 N 35 48 19 26 1008.6 1008.7 0.4
28/01:40am 12.2 5.8 8.7 79 1.7 N 32 50 17 27 1008.8 - 0.4
28/01:30am 12.3 5.0 8.6 78 1.8 N 37 48 20 26 1008.8 - 0.4
28/01:05am 12.2 5.2 8.5 78 1.8 N 35 54 19 29 1009.0 - 0.4
28/01:00am 12.1 4.8 8.6 79 1.7 N 37 54 20 29 1009.0 1009.1 0.4
28/12:30am 12.3 4.9 8.4 77 1.9 N 37 56 20 30 1009.5 - 0.4
28/12:05am 12.0 5.3 8.3 78 1.8 N 33 54 18 29 1009.7 - 0.4
28/12:00am 11.9 4.9 8.4 79 1.7 N 35 52 19 28 1009.8 1009.9 0.4
 
Date/Time
EST
Temp
°C
App
Temp
°C
Dew
Point
Rel
Hum
%
Delta-T
°C
Wind Press
QNH
hPa
Press
MSL
hPa
Rain
since 9 am
mm
Dir
 
Spd
km/h
Gust
km/h
Spd
kts
Gust
kts
27/11:32pm 11.8 5.1 8.3 79 1.7 N 33 52 18 28 1010.3 - 0.4
27/11:30pm 11.8 5.2 8.5 80 1.6 N 33 44 18 24 1010.4 - 0.4
27/11:00pm 11.3 5.2 8.3 82 1.5 N 30 46 16 25 1010.8 1010.9 0.4
27/10:35pm 11.0 5.4 8.6 85 1.2 N 28 46 15 25 1011.2 - 0.4
27/10:30pm 10.8 5.9 8.6 86 1.1 N 24 35 13 19 1011.4 - 0.2
27/10:00pm 10.9 5.2 8.5 85 1.2 N 28 44 15 24 1011.8 1011.9 0.2
27/09:30pm 10.9 5.5 8.1 83 1.4 N 26 35 14 19 1012.1 - 0.2
27/09:00pm 10.4 6.1 7.8 84 1.3 N 20 26 11 14 1012.1 1012.2 0.2
27/08:30pm 10.6 6.0 8.0 84 1.3 N 22 32 12 17 1012.4 - 0.2
27/08:00pm 10.6 5.8 8.7 88 0.9 N 24 35 13 19 1012.5 1012.6 0.2
27/07:30pm 10.6 4.7 9.2 91 0.7 N 30 44 16 24 1012.6 - 0.2
27/07:04pm 10.6 5.6 9.5 93 0.6 N 26 35 14 19 1012.9 - 0.2
27/07:00pm 10.6 5.6 9.7 94 0.5 N 26 39 14 21 1013.0 1013.1 0.2
27/06:37pm 10.9 5.6 9.8 93 0.6 N 28 39 15 21 1013.2 - 0.2
27/06:30pm 10.9 5.6 9.8 93 0.6 N 28 41 15 22 1013.3 - 0.2
27/06:00pm 10.5 6.2 9.4 93 0.5 N 22 30 12 16 1013.4 1013.5 0.2
27/05:30pm 10.9 6.3 8.3 84 1.3 N 22 32 12 17 1013.3 - 0.0
27/05:00pm 10.8 6.3 8.4 85 1.2 N 22 30 12 16 1013.4 1013.5 0.0
27/04:30pm 10.9 5.3 8.7 86 1.1 NNW 28 39 15 21 1013.7 - 0.0
27/04:00pm 11.5 5.3 8.0 79 1.7 NNW 30 37 16 20 1014.1 1014.2 0.0
27/03:30pm 12.5 6.0 8.0 74 2.2 NNW 32 43 17 23 1014.0 - 0.0
27/03:00pm 13.2 7.1 8.1 71 2.5 NNW 30 46 16 25 1014.1 1014.2 0.0
27/02:58pm 12.9 7.0 7.6 70 2.6 NNW 28 46 15 25 1014.1 - 0.0
27/02:30pm 12.5 6.6 7.4 71 2.5 NNW 28 39 15 21 1014.3 - 0.0
27/02:00pm 12.3 5.9 7.0 70 2.5 NNW 30 44 16 24 1014.7 1014.8 0.0
27/01:42pm 12.9 6.0 7.4 69 2.7 NNW 33 52 18 28 1014.9 - 0.0
27/01:30pm 12.9 6.0 7.1 68 2.8 NNW 33 46 18 25 1014.9 - 0.0
27/01:00pm 13.3 6.7 7.7 69 2.7 NNW 32 44 17 24 1015.3 1015.4 0.0

Other Formats:

Comma delimited format used in spreadsheet applications
http://www.bom.gov.au/fwo/IDT60801/IDT60801.94956.axf

JavaScript Object Notation format (JSON) in row-major order
http://www.bom.gov.au/fwo/IDT60801/IDT60801.94956.json